Time;durP1;ratioP1;P1;durP2;ratioP2;P2;SDS_P1;SDS_P2;PMS_P1;PMS_P2;Temp;Humidity;BMP_temperature;BMP_pressure;BME280_temperature;BME280_humidity;BME280_pressure;Samples;Min_cycle;Max_cycle;Signal;HPM_P1;HPM_P2
2022/08/04 00:00:19;;;;;;;0.68;0.68;;;;;;;;;;7378840;19;20125;-67
2022/08/04 00:02:57;;;;;;;0.40;0.40;;;;;;;;;;7377683;19;20144;-67
2022/08/04 00:05:52;;;;;;;1.02;0.98;;;;;;;;;;7380400;19;20602;-68
2022/08/04 00:08:20;;;;;;;0.43;0.43;;;;;;;;;;7377270;19;20121;-68
2022/08/04 00:10:48;;;;;;;0.60;0.60;;;;;;;;;;7375626;19;20154;-67
2022/08/04 00:13:15;;;;;;;0.30;0.30;;;;;;;;;;7379554;19;20208;-67
2022/08/04 00:15:41;;;;;;;0.40;0.40;;;;;;;;;;7376809;19;20121;-67
2022/08/04 00:18:08;;;;;;;0.50;0.50;;;;;;;;;;7381122;19;20148;-67
2022/08/04 00:20:37;;;;;;;0.85;0.75;;;;;;;;;;7370921;19;20456;-67
2022/08/04 00:23:04;;;;;;;0.38;0.38;;;;;;;;;;7372160;19;20623;-67
2022/08/04 00:25:29;;;;;;;0.57;0.57;;;;;;;;;;7373977;19;20140;-67
2022/08/04 00:27:55;;;;;;;0.82;0.82;;;;;;;;;;7377093;19;20158;-67
2022/08/04 00:30:20;;;;;;;0.40;0.40;;;;;;;;;;7376594;19;20139;-67
2022/08/04 00:32:46;;;;;;;0.40;0.40;;;;;;;;;;7372127;19;20152;-67
2022/08/04 00:35:15;;;;;;;0.30;0.30;;;;;;;;;;7379580;19;20137;-67
2022/08/04 00:37:43;;;;;;;0.40;0.40;;;;;;;;;;7378009;19;20132;-67
2022/08/04 00:40:22;;;;;;;0.40;0.40;;;;;;;;;;7382067;19;20583;-68
2022/08/04 00:43:16;;;;;;;1.10;1.00;;;;;;;;;;7378438;19;20158;-67
2022/08/04 00:46:04;;;;;;;0.75;0.75;;;;;;;;;;7374275;19;20121;-67
2022/08/04 00:49:40;;;;;;;0.50;0.50;;;;;;;;;;7373489;19;20136;-67
2022/08/04 00:52:27;;;;;;;0.50;0.50;;;;;;;;;;7374963;19;20172;-67
2022/08/04 00:55:11;;;;;;;0.30;0.30;;;;;;;;;;7373903;19;20132;-68
2022/08/04 00:57:49;;;;;;;0.40;0.40;;;;;;;;;;7375138;19;20465;-67
2022/08/04 01:00:15;;;;;;;0.40;0.40;;;;;;;;;;7383090;19;20113;-68
2022/08/04 01:03:00;;;;;;;0.40;0.40;;;;;;;;;;7382605;19;20637;-67
2022/08/04 01:05:51;;;;;;;0.20;0.20;;;;;;;;;;7376268;19;20124;-67
2022/08/04 01:08:26;;;;;;;0.30;0.30;;;;;;;;;;7384040;19;20456;-67
2022/08/04 01:11:20;;;;;;;1.67;1.00;;;;;;;;;;7383812;19;20483;-67
2022/08/04 01:13:59;;;;;;;0.30;0.30;;;;;;;;;;7381333;19;20612;-68
2022/08/04 01:16:25;;;;;;;0.65;0.65;;;;;;;;;;7378597;19;20153;-67
2022/08/04 01:19:20;;;;;;;0.50;0.50;;;;;;;;;;7374909;19;20134;-67
2022/08/04 01:21:52;;;;;;;0.40;0.40;;;;;;;;;;7382748;19;20172;-67
2022/08/04 01:24:43;;;;;;;0.30;0.30;;;;;;;;;;7381719;19;20121;-67
2022/08/04 01:27:17;;;;;;;0.40;0.40;;;;;;;;;;7381838;19;20125;-68
2022/08/04 01:29:48;;;;;;;0.40;0.40;;;;;;;;;;7386986;19;20133;-67
2022/08/04 01:32:37;;;;;;;0.40;0.40;;;;;;;;;;7384981;19;20212;-67
2022/08/04 01:35:36;;;;;;;0.30;0.30;;;;;;;;;;7377256;19;20136;-67
2022/08/04 01:38:28;;;;;;;0.35;0.35;;;;;;;;;;7384071;19;20124;-67
2022/08/04 01:40:56;;;;;;;0.40;0.40;;;;;;;;;;7382962;19;20121;-67
2022/08/04 01:43:23;;;;;;;0.30;0.30;;;;;;;;;;7373535;19;20162;-67
2022/08/04 01:45:50;;;;;;;0.68;0.68;;;;;;;;;;7385262;19;20567;-67
2022/08/04 01:48:17;;;;;;;0.35;0.35;;;;;;;;;;7382754;19;20129;-67
2022/08/04 01:50:43;;;;;;;0.50;0.50;;;;;;;;;;7363870;19;20663;-67
2022/08/04 01:53:09;;;;;;;0.38;0.38;;;;;;;;;;7379042;19;20487;-68
2022/08/04 01:55:36;;;;;;;0.60;0.60;;;;;;;;;;7388879;19;20185;-67
2022/08/04 01:58:02;;;;;;;0.50;0.50;;;;;;;;;;7377198;19;20113;-67
2022/08/04 02:00:28;;;;;;;0.40;0.40;;;;;;;;;;7383587;19;20125;-67
2022/08/04 02:02:54;;;;;;;0.40;0.40;;;;;;;;;;7382718;19;20528;-67
2022/08/04 02:05:22;;;;;;;0.55;0.55;;;;;;;;;;7388354;19;20767;-68
2022/08/04 02:08:03;;;;;;;0.60;0.60;;;;;;;;;;7384929;19;20144;-67
2022/08/04 02:10:35;;;;;;;0.70;0.70;;;;;;;;;;7387165;19;20116;-67
2022/08/04 02:13:00;;;;;;;0.30;0.30;;;;;;;;;;7381567;19;20160;-67
2022/08/04 02:15:27;;;;;;;0.40;0.40;;;;;;;;;;7388289;19;20203;-67
2022/08/04 02:18:03;;;;;;;0.30;0.30;;;;;;;;;;7390663;19;20133;-67
2022/08/04 02:20:38;;;;;;;0.50;0.50;;;;;;;;;;7389927;19;20112;-67
2022/08/04 02:23:08;;;;;;;0.30;0.30;;;;;;;;;;7375520;19;20616;-67
2022/08/04 02:25:38;;;;;;;0.30;0.30;;;;;;;;;;7383374;19;20124;-67
2022/08/04 02:28:25;;;;;;;0.43;0.43;;;;;;;;;;7391413;19;20125;-67
2022/08/04 02:31:06;;;;;;;0.45;0.45;;;;;;;;;;7385712;19;20155;-67
2022/08/04 02:33:41;;;;;;;0.30;0.30;;;;;;;;;;7383575;19;20117;-67
2022/08/04 02:36:10;;;;;;;0.30;0.30;;;;;;;;;;7373806;19;20140;-67
2022/08/04 02:38:46;;;;;;;0.30;0.30;;;;;;;;;;7385391;19;20117;-67
2022/08/04 02:41:12;;;;;;;0.30;0.30;;;;;;;;;;7381204;19;20124;-67
2022/08/04 02:43:41;;;;;;;0.40;0.40;;;;;;;;;;7380016;19;20469;-67
2022/08/04 02:46:07;;;;;;;0.45;0.45;;;;;;;;;;7382974;19;20117;-67
2022/08/04 02:48:33;;;;;;;0.30;0.30;;;;;;;;;;7384550;19;20120;-67
2022/08/04 02:51:00;;;;;;;0.50;0.50;;;;;;;;;;7386891;19;20457;-67
2022/08/04 02:53:25;;;;;;;0.30;0.30;;;;;;;;;;7379521;19;20141;-67
2022/08/04 02:55:51;;;;;;;0.43;0.43;;;;;;;;;;7386670;19;20471;-67
2022/08/04 02:58:19;;;;;;;0.30;0.30;;;;;;;;;;7379494;19;20708;-67
2022/08/04 03:00:44;;;;;;;0.40;0.40;;;;;;;;;;7380893;19;20212;-67
2022/08/04 03:03:37;;;;;;;0.75;0.63;;;;;;;;;;7380596;19;20165;-67
2022/08/04 03:06:09;;;;;;;0.55;0.55;;;;;;;;;;7386165;19;20486;-67
2022/08/04 03:08:44;;;;;;;0.60;0.60;;;;;;;;;;7380164;19;20129;-67
2022/08/04 03:11:27;;;;;;;0.38;0.38;;;;;;;;;;7382965;19;20143;-67
2022/08/04 03:14:31;;;;;;;0.55;0.50;;;;;;;;;;7387609;19;20566;-67
2022/08/04 03:17:35;;;;;;;0.40;0.40;;;;;;;;;;7380652;19;20140;-67
2022/08/04 03:20:38;;;;;;;0.30;0.30;;;;;;;;;;7382535;19;20215;-67
2022/08/04 03:23:38;;;;;;;0.30;0.30;;;;;;;;;;7379383;19;20172;-68
2022/08/04 03:26:37;;;;;;;0.40;0.40;;;;;;;;;;7376492;19;20200;-66
2022/08/04 03:29:27;;;;;;;0.95;0.90;;;;;;;;;;7384107;19;20150;-67
2022/08/04 03:32:07;;;;;;;0.57;0.57;;;;;;;;;;7381449;19;20145;-67
2022/08/04 03:34:35;;;;;;;2.60;1.27;;;;;;;;;;7382447;19;20133;-67
2022/08/04 03:37:04;;;;;;;0.43;0.43;;;;;;;;;;7376941;19;20500;-67
2022/08/04 03:39:40;;;;;;;0.30;0.30;;;;;;;;;;7383526;19;20141;-67
2022/08/04 03:42:17;;;;;;;0.65;0.65;;;;;;;;;;7388213;19;20227;-69
2022/08/04 03:45:20;;;;;;;0.30;0.30;;;;;;;;;;7387216;19;20238;-67
2022/08/04 03:48:04;;;;;;;0.30;0.30;;;;;;;;;;7385635;19;20603;-67
2022/08/04 03:53:07;;;;;;;0.40;0.40;;;;;;;;;;7389666;19;20563;-67
2022/08/04 03:54:00;;;;;;;0.30;0.30;;;;;;;;;;7382595;19;20149;-67
2022/08/04 03:56:51;;;;;;;0.30;0.30;;;;;;;;;;7386579;19;20153;-67
2022/08/04 03:59:52;;;;;;;0.30;0.30;;;;;;;;;;7386618;19;20113;-67
2022/08/04 04:03:01;;;;;;;0.40;0.40;;;;;;;;;;7384773;19;20589;-67
2022/08/04 04:05:44;;;;;;;0.38;0.38;;;;;;;;;;7383545;19;20157;-67
2022/08/04 04:08:15;;;;;;;0.70;0.70;;;;;;;;;;7390112;19;20113;-67
2022/08/04 04:11:08;;;;;;;0.25;0.25;;;;;;;;;;7387462;19;20140;-67
2022/08/04 04:13:58;;;;;;;0.30;0.30;;;;;;;;;;7388630;19;20117;-67
2022/08/04 04:16:35;;;;;;;0.32;0.32;;;;;;;;;;7389284;19;20120;-67
2022/08/04 04:19:44;;;;;;;0.30;0.30;;;;;;;;;;7382139;19;20135;-67
2022/08/04 04:22:12;;;;;;;0.75;0.75;;;;;;;;;;7377783;19;20649;-67
2022/08/04 04:25:01;;;;;;;0.32;0.32;;;;;;;;;;7387614;19;20240;-67
2022/08/04 04:27:39;;;;;;;0.32;0.32;;;;;;;;;;7382879;19;20482;-67
2022/08/04 04:30:16;;;;;;;0.40;0.40;;;;;;;;;;7384954;19;20121;-67
2022/08/04 04:33:11;;;;;;;0.30;0.30;;;;;;;;;;7387720;19;20151;-67
2022/08/04 04:36:01;;;;;;;0.52;0.52;;;;;;;;;;7386722;19;20188;-68
2022/08/04 04:38:46;;;;;;;0.30;0.30;;;;;;;;;;7392257;19;20495;-67
2022/08/04 04:41:28;;;;;;;0.32;0.32;;;;;;;;;;7388122;19;20127;-67
2022/08/04 04:44:00;;;;;;;0.55;0.55;;;;;;;;;;7386204;19;20484;-67
2022/08/04 04:46:37;;;;;;;0.40;0.40;;;;;;;;;;7388814;19;20121;-66
2022/08/04 04:49:30;;;;;;;0.55;0.55;;;;;;;;;;7388394;19;20141;-67
2022/08/04 04:52:16;;;;;;;0.30;0.30;;;;;;;;;;7381328;19;20508;-67
2022/08/04 04:54:52;;;;;;;0.40;0.40;;;;;;;;;;7389575;19;20477;-67
2022/08/04 04:57:19;;;;;;;0.40;0.40;;;;;;;;;;7396252;19;20121;-67
2022/08/04 05:00:05;;;;;;;0.50;0.50;;;;;;;;;;7397822;19;20150;-67
2022/08/04 05:02:57;;;;;;;0.73;0.73;;;;;;;;;;7391111;19;20172;-67
2022/08/04 05:05:37;;;;;;;0.75;0.73;;;;;;;;;;7395517;19;20156;-67
2022/08/04 05:08:11;;;;;;;0.30;0.30;;;;;;;;;;7395226;19;20146;-67
2022/08/04 05:11:14;;;;;;;0.30;0.30;;;;;;;;;;7397102;19;20131;-67
2022/08/04 05:13:47;;;;;;;0.57;0.57;;;;;;;;;;7398483;19;20120;-67
2022/08/04 05:16:35;;;;;;;0.30;0.30;;;;;;;;;;7395120;19;20590;-66
2022/08/04 05:19:06;;;;;;;0.60;0.60;;;;;;;;;;7394802;19;20180;-66
2022/08/04 05:21:58;;;;;;;0.30;0.30;;;;;;;;;;7396665;19;20149;-67
2022/08/04 05:24:24;;;;;;;0.40;0.40;;;;;;;;;;7392100;19;20119;-67
2022/08/04 05:26:55;;;;;;;0.60;0.60;;;;;;;;;;7393183;19;20195;-67
2022/08/04 05:29:23;;;;;;;0.30;0.30;;;;;;;;;;7395158;19;20113;-66
2022/08/04 05:31:50;;;;;;;0.63;0.63;;;;;;;;;;7395603;19;20152;-67
2022/08/04 05:34:22;;;;;;;0.40;0.40;;;;;;;;;;7395262;19;20133;-67
2022/08/04 05:36:49;;;;;;;0.43;0.43;;;;;;;;;;7397606;19;20140;-66
2022/08/04 05:39:24;;;;;;;0.30;0.30;;;;;;;;;;7395400;19;20147;-66
2022/08/04 05:41:49;;;;;;;0.38;0.38;;;;;;;;;;7394293;19;20153;-66
2022/08/04 05:44:18;;;;;;;0.30;0.30;;;;;;;;;;7391830;19;20121;-67
2022/08/04 05:46:46;;;;;;;0.40;0.40;;;;;;;;;;7396925;19;20136;-67
2022/08/04 05:49:12;;;;;;;0.60;0.60;;;;;;;;;;7395309;19;20125;-67
2022/08/04 05:51:38;;;;;;;0.30;0.30;;;;;;;;;;7395455;19;20176;-67
2022/08/04 05:54:04;;;;;;;0.40;0.40;;;;;;;;;;7393934;19;20124;-69
2022/08/04 05:56:32;;;;;;;0.40;0.40;;;;;;;;;;7395725;19;20117;-67
2022/08/04 05:58:58;;;;;;;0.30;0.30;;;;;;;;;;7394845;19;20125;-66
2022/08/04 06:01:24;;;;;;;0.60;0.60;;;;;;;;;;7393305;19;20141;-66
2022/08/04 06:03:50;;;;;;;0.47;0.47;;;;;;;;;;7393453;19;20134;-67
2022/08/04 06:06:16;;;;;;;0.55;0.55;;;;;;;;;;7393966;19;20162;-66
2022/08/04 06:08:41;;;;;;;0.30;0.30;;;;;;;;;;7393016;19;20121;-67
2022/08/04 06:11:07;;;;;;;0.30;0.30;;;;;;;;;;7393655;19;20144;-67
2022/08/04 06:13:43;;;;;;;0.30;0.30;;;;;;;;;;7394529;19;20124;-67
2022/08/04 06:16:10;;;;;;;0.35;0.35;;;;;;;;;;7394438;19;20134;-67
2022/08/04 06:18:36;;;;;;;0.30;0.30;;;;;;;;;;7394226;19;20210;-67
2022/08/04 06:21:04;;;;;;;0.30;0.30;;;;;;;;;;7393747;19;20140;-67
2022/08/04 06:23:30;;;;;;;0.50;0.50;;;;;;;;;;7393270;19;20457;-67
2022/08/04 06:25:58;;;;;;;0.30;0.30;;;;;;;;;;7393027;19;20123;-67
2022/08/04 06:28:25;;;;;;;0.40;0.40;;;;;;;;;;7394689;19;20149;-67
2022/08/04 06:30:51;;;;;;;0.50;0.50;;;;;;;;;;7393938;19;20127;-66
2022/08/04 06:33:31;;;;;;;0.30;0.30;;;;;;;;;;7391404;19;20160;-67
2022/08/04 06:35:58;;;;;;;0.38;0.38;;;;;;;;;;7392384;19;20128;-67
2022/08/04 06:38:24;;;;;;;0.30;0.30;;;;;;;;;;7394282;19;20603;-67
2022/08/04 06:40:50;;;;;;;0.43;0.43;;;;;;;;;;7393238;19;20121;-67
2022/08/04 06:43:16;;;;;;;0.30;0.30;;;;;;;;;;7391351;19;20225;-67
2022/08/04 06:45:42;;;;;;;0.52;0.52;;;;;;;;;;7394235;19;20125;-67
2022/08/04 06:48:11;;;;;;;0.30;0.30;;;;;;;;;;7393847;19;20125;-67
2022/08/04 06:50:37;;;;;;;0.40;0.40;;;;;;;;;;7393037;19;20145;-67
2022/08/04 06:53:03;;;;;;;0.38;0.38;;;;;;;;;;7389595;19;20169;-67
2022/08/04 06:55:29;;;;;;;0.30;0.30;;;;;;;;;;7393671;19;20620;-67
2022/08/04 06:57:55;;;;;;;0.50;0.50;;;;;;;;;;7392285;19;20121;-67
2022/08/04 07:00:22;;;;;;;0.68;0.68;;;;;;;;;;7392428;19;20236;-67
2022/08/04 07:02:50;;;;;;;0.30;0.30;;;;;;;;;;7390286;19;20164;-66
2022/08/04 07:05:17;;;;;;;0.40;0.40;;;;;;;;;;7391909;19;20537;-67
2022/08/04 07:07:43;;;;;;;0.30;0.30;;;;;;;;;;7392197;19;20129;-67
2022/08/04 07:10:09;;;;;;;0.40;0.40;;;;;;;;;;7392162;19;20125;-67
2022/08/04 07:12:35;;;;;;;0.40;0.40;;;;;;;;;;7390074;19;20220;-67
2022/08/04 07:15:02;;;;;;;0.73;0.68;;;;;;;;;;7391476;19;20124;-67
2022/08/04 07:17:27;;;;;;;0.30;0.30;;;;;;;;;;7391753;19;20647;-67
2022/08/04 07:19:53;;;;;;;0.50;0.50;;;;;;;;;;7389584;19;20148;-67
2022/08/04 07:22:19;;;;;;;0.22;0.22;;;;;;;;;;7389598;19;20259;-66
2022/08/04 07:24:44;;;;;;;0.30;0.30;;;;;;;;;;7390514;19;20128;-67
2022/08/04 07:27:10;;;;;;;0.30;0.30;;;;;;;;;;7389494;19;20132;-67
2022/08/04 07:29:36;;;;;;;0.30;0.30;;;;;;;;;;7391290;19;20140;-67
2022/08/04 07:32:02;;;;;;;0.40;0.40;;;;;;;;;;7391541;19;20156;-67
2022/08/04 07:34:29;;;;;;;0.30;0.30;;;;;;;;;;7391830;19;20192;-67
2022/08/04 07:36:57;;;;;;;0.35;0.35;;;;;;;;;;7392520;19;20594;-67
2022/08/04 07:39:27;;;;;;;0.60;0.60;;;;;;;;;;7391896;19;20140;-67
2022/08/04 07:41:54;;;;;;;0.82;0.50;;;;;;;;;;7391317;19;20156;-67
2022/08/04 07:44:19;;;;;;;0.55;0.55;;;;;;;;;;7389092;19;20121;-67
2022/08/04 07:46:45;;;;;;;0.68;0.40;;;;;;;;;;7390220;19;20212;-67
2022/08/04 07:49:11;;;;;;;0.55;0.40;;;;;;;;;;7390277;19;20158;-67
2022/08/04 07:51:37;;;;;;;0.32;0.32;;;;;;;;;;7383743;19;20153;-67
2022/08/04 07:54:04;;;;;;;0.30;0.30;;;;;;;;;;7383216;19;20212;-67
2022/08/04 07:56:31;;;;;;;0.40;0.40;;;;;;;;;;7383239;19;20129;-67
2022/08/04 07:58:57;;;;;;;0.50;0.50;;;;;;;;;;7384561;19;20136;-67
2022/08/04 08:01:23;;;;;;;0.50;0.50;;;;;;;;;;7382213;19;20674;-67
2022/08/04 08:03:50;;;;;;;0.60;0.60;;;;;;;;;;7382856;19;20117;-67
2022/08/04 08:06:15;;;;;;;0.93;0.77;;;;;;;;;;7391737;19;20129;-66
2022/08/04 08:08:41;;;;;;;0.40;0.40;;;;;;;;;;7390330;19;20210;-67
2022/08/04 08:11:06;;;;;;;2.28;0.50;;;;;;;;;;7388555;19;20145;-66
2022/08/04 08:13:35;;;;;;;0.30;0.30;;;;;;;;;;7386916;19;20531;-67
2022/08/04 08:16:01;;;;;;;0.32;0.32;;;;;;;;;;7390595;19;20128;-67
2022/08/04 08:18:26;;;;;;;0.95;0.93;;;;;;;;;;7392209;19;20121;-66
2022/08/04 08:20:52;;;;;;;0.40;0.40;;;;;;;;;;7389426;19;20172;-65
2022/08/04 08:23:17;;;;;;;0.30;0.30;;;;;;;;;;7387791;19;20147;-66
2022/08/04 08:25:42;;;;;;;1.30;0.93;;;;;;;;;;7390228;19;20121;-67
2022/08/04 08:28:08;;;;;;;0.43;0.43;;;;;;;;;;7390829;19;20624;-67
2022/08/04 08:30:34;;;;;;;0.40;0.40;;;;;;;;;;7388631;19;20477;-67
2022/08/04 08:33:02;;;;;;;0.30;0.30;;;;;;;;;;7391219;19;20204;-67
2022/08/04 08:35:33;;;;;;;0.40;0.40;;;;;;;;;;7388430;19;20124;-67
2022/08/04 08:38:02;;;;;;;0.60;0.60;;;;;;;;;;7389873;19;20128;-67
2022/08/04 08:40:44;;;;;;;0.40;0.40;;;;;;;;;;7389490;19;20153;-67
2022/08/04 08:43:26;;;;;;;0.43;0.43;;;;;;;;;;7387048;19;20169;-66
2022/08/04 08:46:02;;;;;;;0.82;0.77;;;;;;;;;;7388621;19;20129;-67
2022/08/04 08:48:56;;;;;;;0.40;0.40;;;;;;;;;;7389771;19;20117;-67
2022/08/04 08:51:39;;;;;;;0.30;0.30;;;;;;;;;;7390417;19;20161;-67
2022/08/04 08:54:20;;;;;;;0.70;0.60;;;;;;;;;;7390478;19;20121;-67
2022/08/04 08:56:55;;;;;;;0.47;0.47;;;;;;;;;;7390674;19;20137;-66
2022/08/04 08:59:52;;;;;;;0.55;0.55;;;;;;;;;;7389729;19;20135;-67
2022/08/04 09:02:45;;;;;;;0.43;0.43;;;;;;;;;;7386919;19;20181;-67
2022/08/04 09:05:23;;;;;;;0.85;0.85;;;;;;;;;;7389645;19;20477;-67
2022/08/04 09:07:54;;;;;;;0.43;0.43;;;;;;;;;;7389963;19;20128;-67
2022/08/04 09:10:27;;;;;;;0.38;0.38;;;;;;;;;;7391639;19;20154;-66
2022/08/04 09:12:59;;;;;;;0.38;0.38;;;;;;;;;;7387748;19;20176;-66
2022/08/04 09:15:56;;;;;;;0.82;0.82;;;;;;;;;;7388066;19;20176;-66
2022/08/04 09:18:46;;;;;;;0.68;0.68;;;;;;;;;;7388295;19;20137;-67
2022/08/04 09:21:21;;;;;;;0.65;0.65;;;;;;;;;;7389349;19;20133;-67
2022/08/04 09:24:08;;;;;;;0.40;0.40;;;;;;;;;;7385257;19;20117;-67
2022/08/04 09:26:56;;;;;;;0.70;0.70;;;;;;;;;;7388290;19;20592;-67
2022/08/04 09:29:47;;;;;;;0.30;0.30;;;;;;;;;;7389076;19;20494;-67
2022/08/04 09:32:18;;;;;;;0.40;0.40;;;;;;;;;;7386974;19;20149;-67
2022/08/04 09:35:09;;;;;;;0.47;0.47;;;;;;;;;;7389588;19;20117;-67
2022/08/04 09:37:38;;;;;;;0.30;0.30;;;;;;;;;;7388621;19;20125;-66
2022/08/04 09:40:18;;;;;;;1.58;0.68;;;;;;;;;;7389911;19;20188;-67
2022/08/04 09:43:28;;;;;;;0.60;0.60;;;;;;;;;;7389794;19;20544;-67
2022/08/04 09:46:04;;;;;;;0.60;0.60;;;;;;;;;;7394758;19;20159;-67
2022/08/04 09:48:38;;;;;;;0.90;0.85;;;;;;;;;;7394840;19;20609;-67
2022/08/04 09:51:14;;;;;;;0.30;0.30;;;;;;;;;;7396924;19;20484;-67
2022/08/04 09:54:27;;;;;;;0.43;0.43;;;;;;;;;;7395950;19;20144;-67
2022/08/04 09:57:00;;;;;;;0.40;0.40;;;;;;;;;;7396066;19;20145;-67
2022/08/04 09:59:28;;;;;;;0.40;0.40;;;;;;;;;;7393409;19;20206;-67
2022/08/04 10:01:56;;;;;;;1.55;0.50;;;;;;;;;;7393758;19;20160;-67
2022/08/04 10:04:24;;;;;;;1.15;1.05;;;;;;;;;;7390910;19;20591;-67
2022/08/04 10:07:14;;;;;;;0.63;0.55;;;;;;;;;;7396910;19;20124;-67
2022/08/04 10:09:47;;;;;;;0.40;0.40;;;;;;;;;;7394382;19;20136;-67
2022/08/04 10:12:30;;;;;;;0.30;0.30;;;;;;;;;;7394056;19;20603;-67
2022/08/04 10:15:12;;;;;;;0.40;0.40;;;;;;;;;;7395372;19;20121;-68
2022/08/04 10:17:53;;;;;;;0.60;0.60;;;;;;;;;;7395509;19;20150;-67
2022/08/04 10:20:39;;;;;;;0.55;0.55;;;;;;;;;;7395737;19;20233;-67
2022/08/04 10:23:20;;;;;;;0.30;0.30;;;;;;;;;;7392592;19;20160;-66
2022/08/04 10:26:02;;;;;;;0.40;0.40;;;;;;;;;;7392523;19;20144;-67
2022/08/04 10:28:29;;;;;;;0.52;0.52;;;;;;;;;;7394436;19;20758;-67
2022/08/04 10:30:58;;;;;;;0.32;0.32;;;;;;;;;;7394143;19;20129;-67
2022/08/04 10:33:27;;;;;;;0.68;0.68;;;;;;;;;;7391428;19;20176;-67
2022/08/04 10:36:16;;;;;;;0.55;0.55;;;;;;;;;;7392443;19;20117;-67
2022/08/04 10:38:49;;;;;;;0.45;0.45;;;;;;;;;;7394062;19;20144;-67
2022/08/04 10:41:26;;;;;;;0.45;0.45;;;;;;;;;;7394226;19;20125;-67
2022/08/04 10:44:22;;;;;;;0.50;0.40;;;;;;;;;;7390644;19;20200;-67
2022/08/04 10:46:51;;;;;;;0.43;0.43;;;;;;;;;;7395394;19;20125;-67
2022/08/04 10:49:32;;;;;;;0.40;0.40;;;;;;;;;;7395293;19;20615;-67
2022/08/04 10:52:07;;;;;;;0.60;0.60;;;;;;;;;;7391842;19;20504;-68
2022/08/04 10:55:05;;;;;;;0.50;0.50;;;;;;;;;;7393196;19;20149;-68
2022/08/04 10:57:34;;;;;;;0.80;0.80;;;;;;;;;;7391465;19;20137;-67
2022/08/04 11:00:29;;;;;;;0.50;0.50;;;;;;;;;;7392807;19;20120;-68
2022/08/04 11:03:17;;;;;;;0.50;0.50;;;;;;;;;;7389643;19;20578;-67
2022/08/04 11:05:53;;;;;;;0.60;0.60;;;;;;;;;;7394209;19;20138;-67
2022/08/04 11:08:26;;;;;;;0.47;0.47;;;;;;;;;;7393482;19;20183;-67
2022/08/04 11:11:25;;;;;;;0.60;0.60;;;;;;;;;;7391901;19;20125;-68
2022/08/04 11:14:07;;;;;;;0.73;0.73;;;;;;;;;;7394434;19;20146;-68
2022/08/04 11:16:45;;;;;;;0.50;0.50;;;;;;;;;;7391947;19;20154;-67
2022/08/04 11:19:11;;;;;;;0.47;0.47;;;;;;;;;;7392199;19;20121;-68
2022/08/04 11:21:47;;;;;;;0.50;0.50;;;;;;;;;;7393722;19;20160;-68
2022/08/04 11:24:18;;;;;;;0.65;0.65;;;;;;;;;;7389474;19;21109;-67
2022/08/04 11:26:59;;;;;;;0.45;0.45;;;;;;;;;;7392948;19;20638;-68
2022/08/04 11:29:31;;;;;;;0.73;0.73;;;;;;;;;;7392241;19;20196;-68
2022/08/04 11:31:58;;;;;;;0.60;0.60;;;;;;;;;;7390722;19;20145;-68
2022/08/04 11:34:26;;;;;;;0.60;0.60;;;;;;;;;;7391290;19;20117;-68
2022/08/04 11:37:10;;;;;;;0.40;0.40;;;;;;;;;;7391378;19;20125;-68
2022/08/04 11:39:42;;;;;;;0.60;0.60;;;;;;;;;;7393543;19;20117;-68
2022/08/04 11:42:35;;;;;;;0.95;0.95;;;;;;;;;;7389844;19;20176;-68
2022/08/04 11:45:13;;;;;;;0.50;0.50;;;;;;;;;;7390343;19;21015;-68
2022/08/04 11:47:59;;;;;;;0.47;0.47;;;;;;;;;;7391638;19;20578;-68
2022/08/04 11:50:30;;;;;;;0.50;0.50;;;;;;;;;;7391622;19;20137;-68
2022/08/04 11:52:57;;;;;;;0.50;0.50;;;;;;;;;;7391897;19;20208;-68
2022/08/04 11:55:24;;;;;;;0.70;0.70;;;;;;;;;;7391134;19;20485;-68
2022/08/04 11:57:50;;;;;;;0.52;0.52;;;;;;;;;;7391528;19;20120;-68
2022/08/04 12:00:18;;;;;;;0.50;0.50;;;;;;;;;;7392176;19;20487;-68
2022/08/04 12:03:07;;;;;;;0.60;0.60;;;;;;;;;;7389517;19;20182;-68
2022/08/04 12:06:24;;;;;;;0.70;0.70;;;;;;;;;;7388108;19;20152;-68
2022/08/04 12:09:11;;;;;;;0.60;0.60;;;;;;;;;;7386382;19;20129;-68
2022/08/04 12:11:59;;;;;;;0.60;0.60;;;;;;;;;;7387603;19;20145;-68
2022/08/04 12:14:26;;;;;;;0.60;0.60;;;;;;;;;;7387552;19;20490;-68
2022/08/04 12:16:54;;;;;;;1.02;0.90;;;;;;;;;;7389321;19;20132;-68
2022/08/04 12:19:23;;;;;;;0.73;0.73;;;;;;;;;;7389805;19;20124;-68
2022/08/04 12:21:52;;;;;;;1.10;0.85;;;;;;;;;;7390235;19;20168;-67
2022/08/04 12:24:32;;;;;;;0.85;0.70;;;;;;;;;;7387447;19;20162;-68
2022/08/04 12:27:03;;;;;;;0.70;0.70;;;;;;;;;;7391224;19;20116;-68
2022/08/04 12:29:32;;;;;;;0.50;0.50;;;;;;;;;;7390581;19;20495;-68
2022/08/04 12:32:05;;;;;;;0.50;0.50;;;;;;;;;;7388419;19;20148;-68
2022/08/04 12:34:44;;;;;;;0.60;0.60;;;;;;;;;;7389417;19;20176;-67
2022/08/04 12:37:15;;;;;;;0.60;0.60;;;;;;;;;;7389395;19;20129;-68
2022/08/04 12:39:44;;;;;;;0.60;0.60;;;;;;;;;;7391995;19;20128;-68
2022/08/04 12:42:27;;;;;;;1.27;0.60;;;;;;;;;;7387646;19;20574;-68
2022/08/04 12:44:53;;;;;;;0.82;0.82;;;;;;;;;;7387726;19;20140;-68
2022/08/04 12:47:22;;;;;;;0.50;0.50;;;;;;;;;;7389477;19;20588;-68
2022/08/04 12:49:48;;;;;;;0.70;0.70;;;;;;;;;;7388479;19;20599;-68
2022/08/04 12:52:16;;;;;;;0.55;0.55;;;;;;;;;;7387333;19;20145;-68
2022/08/04 12:54:42;;;;;;;0.90;0.90;;;;;;;;;;7388189;19;20141;-68
2022/08/04 12:57:10;;;;;;;0.68;0.68;;;;;;;;;;7389424;19;20124;-67
2022/08/04 12:59:47;;;;;;;0.70;0.70;;;;;;;;;;7388959;19;20145;-68
2022/08/04 13:02:40;;;;;;;0.55;0.55;;;;;;;;;;7387664;19;20140;-68
2022/08/04 13:05:06;;;;;;;0.52;0.52;;;;;;;;;;7390890;19;20224;-68
2022/08/04 13:07:39;;;;;;;0.70;0.70;;;;;;;;;;7389690;19;20129;-68
2022/08/04 13:10:11;;;;;;;0.57;0.57;;;;;;;;;;7389948;19;20611;-68
2022/08/04 13:12:37;;;;;;;0.50;0.50;;;;;;;;;;7387484;19;20160;-68
2022/08/04 13:15:11;;;;;;;1.67;0.80;;;;;;;;;;7388657;19;20124;-68
2022/08/04 13:18:02;;;;;;;0.60;0.60;;;;;;;;;;7393060;19;20124;-68
2022/08/04 13:20:30;;;;;;;0.70;0.70;;;;;;;;;;7396469;19;20145;-68
2022/08/04 13:23:04;;;;;;;0.50;0.50;;;;;;;;;;7393856;19;20152;-68
2022/08/04 13:25:30;;;;;;;0.52;0.52;;;;;;;;;;7395624;19;20621;-68
2022/08/04 13:27:58;;;;;;;0.57;0.57;;;;;;;;;;7396762;19;20117;-68
2022/08/04 13:30:24;;;;;;;0.57;0.57;;;;;;;;;;7397526;19;20176;-68
2022/08/04 13:33:08;;;;;;;0.65;0.65;;;;;;;;;;7394455;19;20165;-68
2022/08/04 13:35:36;;;;;;;0.57;0.57;;;;;;;;;;7395120;19;20148;-69
2022/08/04 13:38:02;;;;;;;0.70;0.70;;;;;;;;;;7398420;19;20192;-68
2022/08/04 13:40:28;;;;;;;0.93;0.93;;;;;;;;;;7395183;19;20487;-68
2022/08/04 13:42:54;;;;;;;0.82;0.68;;;;;;;;;;7393529;19;20145;-68
2022/08/04 13:45:24;;;;;;;0.60;0.60;;;;;;;;;;7395448;19;20117;-68
2022/08/04 13:47:51;;;;;;;0.50;0.50;;;;;;;;;;7395972;19;20240;-68
2022/08/04 13:50:22;;;;;;;0.60;0.60;;;;;;;;;;7394537;19;20152;-68
2022/08/04 13:52:50;;;;;;;1.38;0.98;;;;;;;;;;7393874;19;20652;-68
2022/08/04 13:55:28;;;;;;;0.65;0.65;;;;;;;;;;7395076;19;20138;-68
2022/08/04 13:58:13;;;;;;;0.70;0.70;;;;;;;;;;7394384;19;20128;-68
2022/08/04 14:00:48;;;;;;;0.60;0.60;;;;;;;;;;7394826;19;20128;-68
2022/08/04 14:03:23;;;;;;;0.50;0.50;;;;;;;;;;7392262;19;20156;-67
2022/08/04 14:06:07;;;;;;;0.47;0.47;;;;;;;;;;7394917;19;20123;-68
2022/08/04 14:08:35;;;;;;;0.60;0.60;;;;;;;;;;7394703;19;20128;-69
2022/08/04 14:11:01;;;;;;;0.60;0.60;;;;;;;;;;7394997;19;20172;-67
2022/08/04 14:13:33;;;;;;;0.90;0.90;;;;;;;;;;7393806;19;20153;-67
2022/08/04 14:15:58;;;;;;;0.60;0.60;;;;;;;;;;7393779;19;20170;-68
2022/08/04 14:18:26;;;;;;;0.50;0.50;;;;;;;;;;7395843;19;20137;-68
2022/08/04 14:21:12;;;;;;;0.50;0.50;;;;;;;;;;7394055;19;20627;-68
2022/08/04 14:23:53;;;;;;;0.60;0.60;;;;;;;;;;7393303;19;20120;-68
2022/08/04 14:26:22;;;;;;;0.50;0.50;;;;;;;;;;7396555;19;20196;-68
2022/08/04 14:28:48;;;;;;;0.60;0.60;;;;;;;;;;7394165;19;20582;-68
2022/08/04 14:31:16;;;;;;;0.77;0.77;;;;;;;;;;7393997;19;20184;-68
2022/08/04 14:33:44;;;;;;;0.50;0.50;;;;;;;;;;7394333;19;20473;-68
2022/08/04 14:36:10;;;;;;;0.60;0.60;;;;;;;;;;7394617;19;20125;-68
2022/08/04 14:38:47;;;;;;;0.60;0.60;;;;;;;;;;7394452;19;20603;-68
2022/08/04 14:41:14;;;;;;;0.68;0.68;;;;;;;;;;7394563;19;20141;-67
2022/08/04 14:43:43;;;;;;;0.60;0.60;;;;;;;;;;7391065;19;20121;-68
2022/08/04 14:46:10;;;;;;;0.60;0.60;;;;;;;;;;7395909;19;20121;-68
2022/08/04 14:48:35;;;;;;;0.60;0.60;;;;;;;;;;7394174;19;20124;-68
2022/08/04 14:51:02;;;;;;;0.70;0.70;;;;;;;;;;7395344;19;20125;-68
2022/08/04 14:53:30;;;;;;;1.38;0.70;;;;;;;;;;7393280;19;20170;-68
2022/08/04 14:55:58;;;;;;;0.50;0.50;;;;;;;;;;7394758;19;20163;-67
2022/08/04 14:58:29;;;;;;;1.25;1.15;;;;;;;;;;7393227;19;20131;-69
2022/08/04 15:00:56;;;;;;;0.50;0.50;;;;;;;;;;7393900;19;20135;-68
2022/08/04 15:03:23;;;;;;;0.50;0.50;;;;;;;;;;7390125;19;20208;-68
2022/08/04 15:05:48;;;;;;;0.60;0.60;;;;;;;;;;7392462;19;20121;-68
2022/08/04 15:08:14;;;;;;;0.57;0.57;;;;;;;;;;7393612;19;20144;-67
2022/08/04 15:10:40;;;;;;;0.68;0.68;;;;;;;;;;7393467;19;20129;-68
2022/08/04 15:13:06;;;;;;;0.40;0.40;;;;;;;;;;7392523;19;20517;-68
2022/08/04 15:15:31;;;;;;;1.42;1.33;;;;;;;;;;7392418;19;20121;-68
2022/08/04 15:17:57;;;;;;;0.60;0.60;;;;;;;;;;7392284;19;20109;-68
2022/08/04 15:20:22;;;;;;;0.57;0.57;;;;;;;;;;7392965;19;20120;-68
2022/08/04 15:22:48;;;;;;;0.63;0.63;;;;;;;;;;7392263;19;20148;-68
2022/08/04 15:25:14;;;;;;;1.08;1.02;;;;;;;;;;7392144;19;20117;-68
2022/08/04 15:27:40;;;;;;;0.50;0.50;;;;;;;;;;7392812;19;20137;-68